Time;durP1;ratioP1;P1;durP2;ratioP2;P2;SDS_P1;SDS_P2;PMS_P1;PMS_P2;Temp;Humidity;BMP_temperature;BMP_pressure;BME280_temperature;BME280_humidity;BME280_pressure;Samples;Min_cycle;Max_cycle;Signal;HPM_P1;HPM_P2
2023/04/30 00:02:08;;;;;;;8.85;1.73;;;;;;;;;;5135993;27;20056;-62
2023/04/30 00:04:35;;;;;;;8.43;2.58;;;;;;;;;;5135839;27;20016;-62
2023/04/30 00:07:02;;;;;;;4.47;2.57;;;;;;;;;;5135578;27;20500;-63
2023/04/30 00:09:29;;;;;;;3.50;2.33;;;;;;;;;;5132311;27;20097;-62
2023/04/30 00:11:56;;;;;;;1.27;0.97;;;;;;;;;;5130078;27;20367;-62
2023/04/30 00:14:23;;;;;;;1.90;1.10;;;;;;;;;;5130618;27;20446;-61
2023/04/30 00:16:49;;;;;;;0.73;0.60;;;;;;;;;;5130517;27;20339;-62
2023/04/30 00:19:16;;;;;;;1.13;0.80;;;;;;;;;;5132992;27;20376;-62
2023/04/30 00:21:43;;;;;;;0.80;0.63;;;;;;;;;;5135458;27;20528;-62
2023/04/30 00:24:09;;;;;;;1.10;0.80;;;;;;;;;;5135396;27;20104;-64
2023/04/30 00:26:36;;;;;;;0.47;0.47;;;;;;;;;;5135327;27;20031;-64
2023/04/30 00:29:03;;;;;;;2.97;1.37;;;;;;;;;;5135377;27;20028;-63
2023/04/30 00:31:30;;;;;;;1.20;0.80;;;;;;;;;;5132421;27;20016;-62
2023/04/30 00:33:57;;;;;;;1.63;0.93;;;;;;;;;;5130108;27;20034;-63
2023/04/30 00:36:24;;;;;;;2.17;1.40;;;;;;;;;;5130048;27;20090;-62
2023/04/30 00:38:50;;;;;;;6.10;3.73;;;;;;;;;;5129884;27;20031;-62
2023/04/30 00:41:18;;;;;;;7.27;4.33;;;;;;;;;;5113406;27;20473;-62
2023/04/30 00:43:47;;;;;;;8.87;4.60;;;;;;;;;;5135051;27;20022;-62
2023/04/30 00:46:14;;;;;;;21.90;5.07;;;;;;;;;;5134855;27;20027;-62
2023/04/30 00:48:41;;;;;;;12.03;4.30;;;;;;;;;;5134405;27;20047;-61
2023/04/30 00:51:07;;;;;;;10.70;4.53;;;;;;;;;;5133866;27;20027;-63
2023/04/30 00:53:35;;;;;;;6.13;3.90;;;;;;;;;;5132976;27;20552;-62
2023/04/30 00:56:02;;;;;;;6.70;3.73;;;;;;;;;;5129750;27;20023;-62
2023/04/30 00:58:29;;;;;;;5.73;3.37;;;;;;;;;;5129540;27;20537;-62
2023/04/30 01:00:56;;;;;;;8.33;3.77;;;;;;;;;;5129512;27;20023;-62
2023/04/30 01:03:23;;;;;;;2.90;2.43;;;;;;;;;;5130703;27;20031;-62
2023/04/30 01:05:50;;;;;;;2.97;2.40;;;;;;;;;;5134592;27;20012;-62
2023/04/30 01:08:17;;;;;;;3.67;2.27;;;;;;;;;;5134394;27;20102;-62
2023/04/30 01:11:04;;;;;;;8.97;2.20;;;;;;;;;;5134668;27;20031;-62
2023/04/30 01:13:45;;;;;;;6.40;3.17;;;;;;;;;;5117432;27;20039;-62
2023/04/30 01:16:15;;;;;;;4.67;2.77;;;;;;;;;;5131712;27;20027;-62
2023/04/30 01:19:11;;;;;;;8.33;2.80;;;;;;;;;;5129176;27;20042;-62
2023/04/30 01:21:40;;;;;;;5.30;2.70;;;;;;;;;;5089598;27;20430;-61
2023/04/30 01:24:27;;;;;;;5.97;3.37;;;;;;;;;;5129131;27;20027;-61
2023/04/30 01:26:54;;;;;;;7.00;3.50;;;;;;;;;;5080843;27;20047;-61
2023/04/30 01:29:22;;;;;;;3.20;2.70;;;;;;;;;;5134194;27;20023;-62
2023/04/30 01:31:48;;;;;;;4.73;2.60;;;;;;;;;;5134193;27;20046;-61
2023/04/30 01:34:15;;;;;;;5.80;2.20;;;;;;;;;;5134094;27;20457;-62
2023/04/30 01:37:08;;;;;;;3.97;1.63;;;;;;;;;;5134051;27;20049;-61
2023/04/30 01:40:05;;;;;;;0.60;0.60;;;;;;;;;;5124973;27;20397;-61
2023/04/30 01:42:41;;;;;;;1.83;1.00;;;;;;;;;;5108293;27;20475;-61
2023/04/30 01:45:08;;;;;;;1.90;0.97;;;;;;;;;;5128997;27;20076;-62
2023/04/30 01:47:56;;;;;;;0.90;0.40;;;;;;;;;;5128851;27;20039;-61
2023/04/30 01:50:33;;;;;;;0.43;0.30;;;;;;;;;;5133739;27;20105;-61
2023/04/30 01:53:01;;;;;;;0.57;0.47;;;;;;;;;;5133383;27;20373;-62
2023/04/30 01:55:28;;;;;;;0.73;0.43;;;;;;;;;;5133772;27;20525;-61
2023/04/30 01:57:59;;;;;;;0.90;0.60;;;;;;;;;;5133863;27;20099;-62
2023/04/30 02:00:27;;;;;;;1.63;0.73;;;;;;;;;;5132331;27;20103;-61
2023/04/30 02:02:54;;;;;;;0.43;0.40;;;;;;;;;;5109987;27;20077;-61
2023/04/30 02:05:21;;;;;;;0.87;0.50;;;;;;;;;;5110056;27;20023;-62
2023/04/30 02:07:48;;;;;;;1.27;0.63;;;;;;;;;;5128401;27;20470;-61
2023/04/30 02:10:18;;;;;;;0.53;0.40;;;;;;;;;;5128791;27;20035;-62
2023/04/30 02:12:44;;;;;;;1.13;0.50;;;;;;;;;;5133591;27;20439;-61
2023/04/30 02:15:11;;;;;;;0.43;0.40;;;;;;;;;;5133501;27;20098;-62
2023/04/30 02:17:38;;;;;;;0.60;0.40;;;;;;;;;;5133475;27;20023;-61
2023/04/30 02:20:06;;;;;;;0.60;0.43;;;;;;;;;;5133498;27;20060;-61
2023/04/30 02:22:32;;;;;;;6.03;0.83;;;;;;;;;;5132624;27;20068;-61
2023/04/30 02:24:59;;;;;;;1.60;0.70;;;;;;;;;;5109825;28;20027;-61
2023/04/30 02:27:26;;;;;;;7.10;0.70;;;;;;;;;;5127850;28;20449;-61
2023/04/30 02:29:53;;;;;;;0.63;0.43;;;;;;;;;;5128393;28;20034;-62
2023/04/30 02:32:20;;;;;;;2.00;0.90;;;;;;;;;;5128286;28;20057;-61
2023/04/30 02:34:47;;;;;;;0.93;0.50;;;;;;;;;;5133296;28;20034;-61
2023/04/30 02:37:14;;;;;;;0.80;0.50;;;;;;;;;;5133256;28;20066;-62
2023/04/30 02:39:40;;;;;;;0.40;0.33;;;;;;;;;;5133350;28;20031;-61
2023/04/30 02:42:07;;;;;;;1.10;0.43;;;;;;;;;;5133261;28;20080;-61
2023/04/30 02:44:34;;;;;;;1.57;1.13;;;;;;;;;;5133111;28;20027;-62
2023/04/30 02:47:01;;;;;;;2.23;0.70;;;;;;;;;;5127982;28;20384;-61
2023/04/30 02:49:29;;;;;;;0.73;0.50;;;;;;;;;;5128076;28;20454;-61
2023/04/30 02:51:56;;;;;;;1.87;0.90;;;;;;;;;;5128220;28;20016;-61
2023/04/30 02:54:23;;;;;;;0.90;0.70;;;;;;;;;;5127951;28;20049;-61
2023/04/30 02:56:49;;;;;;;1.77;1.13;;;;;;;;;;5132245;28;20575;-61
2023/04/30 02:59:16;;;;;;;0.73;0.70;;;;;;;;;;5133348;28;20030;-61
2023/04/30 03:01:43;;;;;;;1.03;0.80;;;;;;;;;;5133050;28;20048;-61
2023/04/30 03:04:10;;;;;;;1.33;0.77;;;;;;;;;;5132531;28;20023;-61
2023/04/30 03:06:36;;;;;;;1.57;0.90;;;;;;;;;;5132972;28;20111;-62
2023/04/30 03:09:03;;;;;;;1.20;0.97;;;;;;;;;;5128498;28;20096;-61
2023/04/30 03:11:30;;;;;;;1.87;1.30;;;;;;;;;;5127983;28;20026;-61
2023/04/30 03:13:57;;;;;;;1.13;1.03;;;;;;;;;;5130510;27;20023;-61
2023/04/30 03:16:24;;;;;;;2.70;1.23;;;;;;;;;;5131739;27;20054;-61
2023/04/30 03:18:50;;;;;;;1.83;1.20;;;;;;;;;;5135337;27;20484;-61
2023/04/30 03:21:17;;;;;;;1.70;1.17;;;;;;;;;;5136123;27;20385;-61
2023/04/30 03:23:45;;;;;;;1.63;1.30;;;;;;;;;;5136966;27;20043;-61
2023/04/30 03:26:11;;;;;;;4.40;1.50;;;;;;;;;;5136746;27;20064;-60
2023/04/30 03:28:38;;;;;;;0.70;0.60;;;;;;;;;;5136512;27;20027;-61
2023/04/30 03:31:05;;;;;;;1.53;0.93;;;;;;;;;;5133075;27;20054;-61
2023/04/30 03:33:32;;;;;;;2.83;1.50;;;;;;;;;;5131360;27;20123;-61
2023/04/30 03:35:59;;;;;;;2.90;1.50;;;;;;;;;;5112867;27;20226;-61
2023/04/30 03:38:25;;;;;;;7.33;1.60;;;;;;;;;;5130860;27;20038;-61
2023/04/30 03:40:52;;;;;;;2.37;1.30;;;;;;;;;;5134162;27;20019;-61
2023/04/30 03:43:19;;;;;;;2.23;1.17;;;;;;;;;;5136423;27;20102;-62
2023/04/30 03:45:46;;;;;;;7.50;1.80;;;;;;;;;;5136403;27;20484;-62
2023/04/30 03:48:13;;;;;;;0.93;0.70;;;;;;;;;;5136240;27;20023;-61
2023/04/30 03:50:39;;;;;;;3.07;1.40;;;;;;;;;;5136228;27;20080;-61
2023/04/30 03:53:06;;;;;;;0.87;0.50;;;;;;;;;;5133450;27;20027;-60
2023/04/30 03:55:34;;;;;;;1.70;1.03;;;;;;;;;;5130837;27;20027;-61
2023/04/30 03:58:01;;;;;;;1.83;1.30;;;;;;;;;;5112163;27;20031;-61
2023/04/30 04:00:28;;;;;;;0.80;0.57;;;;;;;;;;5130952;27;20027;-61
2023/04/30 04:02:54;;;;;;;1.57;1.07;;;;;;;;;;5133101;27;20019;-61
2023/04/30 04:05:21;;;;;;;1.73;1.03;;;;;;;;;;5135914;27;20028;-61
2023/04/30 04:07:50;;;;;;;1.87;1.17;;;;;;;;;;5135920;27;20035;-61
2023/04/30 04:10:17;;;;;;;0.97;0.83;;;;;;;;;;5135946;27;20030;-61
2023/04/30 04:12:44;;;;;;;1.20;0.87;;;;;;;;;;5135549;27;20031;-61
2023/04/30 04:15:10;;;;;;;0.80;0.70;;;;;;;;;;5132984;27;20030;-61
2023/04/30 04:17:37;;;;;;;1.83;1.20;;;;;;;;;;5130718;27;20031;-61
2023/04/30 04:20:05;;;;;;;3.27;1.57;;;;;;;;;;5130532;27;20027;-61
2023/04/30 04:22:32;;;;;;;1.00;0.80;;;;;;;;;;5130635;27;20471;-61
2023/04/30 04:24:58;;;;;;;0.87;0.70;;;;;;;;;;5131881;27;20369;-61
2023/04/30 04:27:25;;;;;;;0.40;0.40;;;;;;;;;;5135513;27;20518;-61
2023/04/30 04:29:53;;;;;;;2.60;1.30;;;;;;;;;;5135387;27;20019;-61
2023/04/30 04:32:21;;;;;;;1.27;1.10;;;;;;;;;;5135500;27;20027;-61
2023/04/30 04:34:48;;;;;;;21.43;0.93;;;;;;;;;;5135280;27;20421;-61
2023/04/30 04:37:16;;;;;;;3.00;1.47;;;;;;;;;;5133658;27;20068;-61
2023/04/30 04:39:43;;;;;;;2.33;1.37;;;;;;;;;;5130078;27;20545;-61
2023/04/30 04:42:10;;;;;;;1.00;0.70;;;;;;;;;;5129986;27;20027;-61
2023/04/30 04:44:38;;;;;;;4.30;1.00;;;;;;;;;;5130086;27;20128;-62
2023/04/30 04:47:05;;;;;;;1.53;1.00;;;;;;;;;;5130702;27;20027;-62
2023/04/30 04:49:31;;;;;;;2.47;1.40;;;;;;;;;;5135152;27;20470;-61
2023/04/30 04:51:58;;;;;;;2.67;0.97;;;;;;;;;;5134655;27;20023;-61
2023/04/30 04:54:25;;;;;;;0.97;0.70;;;;;;;;;;5135081;27;20019;-61
2023/04/30 04:56:52;;;;;;;4.47;1.93;;;;;;;;;;5134916;27;20027;-61
2023/04/30 04:59:19;;;;;;;4.27;1.90;;;;;;;;;;5133853;27;20027;-61
2023/04/30 05:01:46;;;;;;;2.53;1.90;;;;;;;;;;5129669;27;20030;-61
2023/04/30 05:04:13;;;;;;;3.27;2.10;;;;;;;;;;5129576;27;20046;-61
2023/04/30 05:06:41;;;;;;;1.83;1.57;;;;;;;;;;5129411;27;20386;-61
2023/04/30 05:09:08;;;;;;;2.13;1.30;;;;;;;;;;5129342;27;20033;-62
2023/04/30 05:11:35;;;;;;;2.10;1.43;;;;;;;;;;5116156;27;20035;-61
2023/04/30 05:14:02;;;;;;;1.27;0.90;;;;;;;;;;5134692;27;20488;-62
2023/04/30 05:16:29;;;;;;;2.87;1.23;;;;;;;;;;5134580;27;20119;-61
2023/04/30 05:18:56;;;;;;;2.07;1.27;;;;;;;;;;5116025;27;20377;-61
2023/04/30 05:21:24;;;;;;;1.93;1.00;;;;;;;;;;5133974;27;20015;-61
2023/04/30 05:23:51;;;;;;;6.47;1.73;;;;;;;;;;5129193;27;20060;-62
2023/04/30 05:26:18;;;;;;;3.23;2.20;;;;;;;;;;5128895;27;20027;-61
2023/04/30 05:28:45;;;;;;;2.40;1.77;;;;;;;;;;5129363;27;20027;-61
2023/04/30 05:31:11;;;;;;;2.43;1.60;;;;;;;;;;5129108;27;20517;-61
2023/04/30 05:33:39;;;;;;;4.03;2.10;;;;;;;;;;5133970;27;20370;-61
2023/04/30 05:36:06;;;;;;;2.13;1.00;;;;;;;;;;5133732;27;20069;-61
2023/04/30 05:38:33;;;;;;;1.97;1.13;;;;;;;;;;5133972;27;20492;-61
2023/04/30 05:41:00;;;;;;;4.03;1.77;;;;;;;;;;5134037;27;20019;-61
2023/04/30 05:43:27;;;;;;;6.17;2.27;;;;;;;;;;5134049;27;20079;-61
2023/04/30 05:45:54;;;;;;;2.30;1.63;;;;;;;;;;5128751;27;20510;-62
2023/04/30 05:48:21;;;;;;;13.20;1.30;;;;;;;;;;5128913;27;20068;-61
2023/04/30 05:50:47;;;;;;;2.67;1.80;;;;;;;;;;5128868;27;20031;-61
2023/04/30 05:53:14;;;;;;;2.73;1.80;;;;;;;;;;5128760;27;20030;-61
2023/04/30 05:55:41;;;;;;;2.13;1.37;;;;;;;;;;5132599;27;20106;-61
2023/04/30 05:58:08;;;;;;;5.13;2.40;;;;;;;;;;5133927;27;20016;-61
2023/04/30 06:00:34;;;;;;;11.37;2.33;;;;;;;;;;5133813;27;20373;-61
2023/04/30 06:03:01;;;;;;;10.50;2.57;;;;;;;;;;5133643;27;20023;-61
2023/04/30 06:05:28;;;;;;;2.03;1.30;;;;;;;;;;5133408;27;20046;-61
2023/04/30 06:07:55;;;;;;;5.27;2.27;;;;;;;;;;5129525;27;20035;-62
2023/04/30 06:10:21;;;;;;;2.40;1.53;;;;;;;;;;5128525;27;20034;-60
2023/04/30 06:12:48;;;;;;;6.00;1.70;;;;;;;;;;5128531;27;20031;-61
2023/04/30 06:15:15;;;;;;;3.57;2.07;;;;;;;;;;5128606;27;20027;-61
2023/04/30 06:17:42;;;;;;;3.27;1.73;;;;;;;;;;5131787;27;20027;-61
2023/04/30 06:20:09;;;;;;;1.87;1.37;;;;;;;;;;5133420;27;20019;-61
2023/04/30 06:22:36;;;;;;;9.13;2.00;;;;;;;;;;5133091;27;20045;-61
2023/04/30 06:25:03;;;;;;;3.10;1.50;;;;;;;;;;5133447;27;20029;-61
2023/04/30 06:27:31;;;;;;;2.83;1.63;;;;;;;;;;5133403;28;20038;-61
2023/04/30 06:29:59;;;;;;;2.63;1.63;;;;;;;;;;5129832;28;20606;-61
2023/04/30 06:32:26;;;;;;;2.97;1.67;;;;;;;;;;5128343;28;20029;-61
2023/04/30 06:34:53;;;;;;;0.97;0.80;;;;;;;;;;5128388;28;20034;-61
2023/04/30 06:37:20;;;;;;;2.40;1.53;;;;;;;;;;5128083;28;20106;-61
2023/04/30 06:39:46;;;;;;;2.20;1.67;;;;;;;;;;5130437;28;20414;-62
2023/04/30 06:42:13;;;;;;;2.63;1.80;;;;;;;;;;5133271;28;20049;-61
2023/04/30 06:44:40;;;;;;;10.93;2.07;;;;;;;;;;5133301;28;20019;-61
2023/04/30 06:47:07;;;;;;;3.50;2.10;;;;;;;;;;5133138;27;20088;-61
2023/04/30 06:49:33;;;;;;;1.93;1.40;;;;;;;;;;5118494;27;20391;-62
2023/04/30 06:52:00;;;;;;;2.50;1.57;;;;;;;;;;5134647;27;20019;-61
2023/04/30 06:54:27;;;;;;;4.47;1.90;;;;;;;;;;5132210;27;20465;-61
2023/04/30 06:56:54;;;;;;;1.93;1.40;;;;;;;;;;5132235;27;20392;-61
2023/04/30 06:59:21;;;;;;;4.13;2.07;;;;;;;;;;5132104;27;20027;-62
2023/04/30 07:01:47;;;;;;;2.40;1.50;;;;;;;;;;5134081;27;20023;-61
2023/04/30 07:04:14;;;;;;;3.67;1.87;;;;;;;;;;5118444;27;20106;-61
2023/04/30 07:06:41;;;;;;;2.53;1.80;;;;;;;;;;5137091;27;20104;-62
2023/04/30 07:09:08;;;;;;;4.40;2.13;;;;;;;;;;5137100;27;20105;-61
2023/04/30 07:11:34;;;;;;;1.40;0.97;;;;;;;;;;5137059;27;20031;-61
2023/04/30 07:14:01;;;;;;;2.37;0.93;;;;;;;;;;5134888;27;20481;-61
2023/04/30 07:16:28;;;;;;;2.47;1.27;;;;;;;;;;5112966;27;20081;-61
2023/04/30 07:18:55;;;;;;;0.60;0.50;;;;;;;;;;5131779;27;20023;-61
2023/04/30 07:21:24;;;;;;;2.10;1.23;;;;;;;;;;5131469;27;20023;-61
2023/04/30 07:23:51;;;;;;;2.10;0.83;;;;;;;;;;5133000;27;20034;-61
2023/04/30 07:26:17;;;;;;;1.37;1.03;;;;;;;;;;5136621;27;20027;-61
2023/04/30 07:28:49;;;;;;;2.00;1.27;;;;;;;;;;5136508;27;20485;-61
2023/04/30 07:31:16;;;;;;;1.33;1.03;;;;;;;;;;5136286;27;20057;-61
2023/04/30 07:33:43;;;;;;;0.80;0.67;;;;;;;;;;5136551;27;20019;-61
2023/04/30 07:36:10;;;;;;;0.97;0.87;;;;;;;;;;5134893;27;20414;-61
2023/04/30 07:38:37;;;;;;;0.87;0.63;;;;;;;;;;5131234;27;20046;-61
2023/04/30 07:41:05;;;;;;;1.97;1.20;;;;;;;;;;5131260;27;20485;-61
2023/04/30 07:43:31;;;;;;;1.73;0.90;;;;;;;;;;5131495;27;20454;-62
2023/04/30 07:45:58;;;;;;;1.80;1.30;;;;;;;;;;5132033;27;20023;-61
2023/04/30 07:48:25;;;;;;;3.37;1.17;;;;;;;;;;5136046;27;20027;-61
2023/04/30 07:50:52;;;;;;;1.77;1.03;;;;;;;;;;5136367;27;20031;-61
2023/04/30 07:53:18;;;;;;;1.67;1.27;;;;;;;;;;5136321;27;20374;-61
2023/04/30 07:55:45;;;;;;;5.17;1.07;;;;;;;;;;5136078;27;20031;-61
2023/04/30 07:58:12;;;;;;;1.37;0.80;;;;;;;;;;5134908;27;20042;-61
2023/04/30 08:00:39;;;;;;;2.20;1.07;;;;;;;;;;5130700;27;20488;-60
2023/04/30 08:03:05;;;;;;;2.47;1.53;;;;;;;;;;5130784;27;20073;-60
2023/04/30 08:05:32;;;;;;;1.27;0.70;;;;;;;;;;5130858;27;20058;-61
2023/04/30 08:07:59;;;;;;;2.03;1.17;;;;;;;;;;5130899;27;20397;-61
2023/04/30 08:10:26;;;;;;;3.37;1.17;;;;;;;;;;5135959;27;20022;-61
2023/04/30 08:12:53;;;;;;;0.90;0.80;;;;;;;;;;5135629;27;20035;-61
2023/04/30 08:15:20;;;;;;;2.20;1.17;;;;;;;;;;5135834;27;20028;-61
2023/04/30 08:17:50;;;;;;;1.60;0.90;;;;;;;;;;5135757;27;20078;-61
2023/04/30 08:20:17;;;;;;;5.97;1.77;;;;;;;;;;5135044;27;20042;-61
2023/04/30 08:22:47;;;;;;;1.73;1.13;;;;;;;;;;5130437;27;20027;-61
2023/04/30 08:25:14;;;;;;;4.53;1.63;;;;;;;;;;5130553;27;20526;-61
2023/04/30 08:27:41;;;;;;;4.20;1.17;;;;;;;;;;5130263;27;20035;-62
2023/04/30 08:30:08;;;;;;;3.53;1.23;;;;;;;;;;5130294;27;20080;-61
2023/04/30 08:32:35;;;;;;;1.67;0.90;;;;;;;;;;5135601;27;20031;-61
2023/04/30 08:35:05;;;;;;;1.17;0.80;;;;;;;;;;5135450;27;20023;-61
2023/04/30 08:37:32;;;;;;;3.20;1.10;;;;;;;;;;5135206;27;20032;-61
2023/04/30 08:39:59;;;;;;;7.40;0.90;;;;;;;;;;5134905;27;20381;-61
2023/04/30 08:42:29;;;;;;;1.17;0.80;;;;;;;;;;5135307;27;20051;-61
2023/04/30 08:44:56;;;;;;;2.87;1.00;;;;;;;;;;5130160;27;20049;-61
2023/04/30 08:47:24;;;;;;;7.30;1.40;;;;;;;;;;5129884;27;20038;-61
2023/04/30 08:49:50;;;;;;;2.23;1.43;;;;;;;;;;5130041;27;20019;-60
2023/04/30 08:52:19;;;;;;;1.43;0.90;;;;;;;;;;5129912;27;20026;-61
2023/04/30 08:54:46;;;;;;;3.13;1.60;;;;;;;;;;5134675;27;20106;-61
2023/04/30 08:57:13;;;;;;;1.87;1.03;;;;;;;;;;5134672;27;20024;-61
2023/04/30 08:59:40;;;;;;;1.50;0.90;;;;;;;;;;5135133;27;20023;-61
2023/04/30 09:02:09;;;;;;;2.03;1.30;;;;;;;;;;5134805;27;20023;-61
2023/04/30 09:04:35;;;;;;;2.40;1.30;;;;;;;;;;5134633;27;20023;-61
2023/04/30 09:07:03;;;;;;;2.97;1.60;;;;;;;;;;5129493;27;20102;-62
2023/04/30 09:09:31;;;;;;;0.90;0.67;;;;;;;;;;5129584;27;20030;-61
2023/04/30 09:12:18;;;;;;;1.73;1.07;;;;;;;;;;5128330;27;20083;-61
2023/04/30 09:15:00;;;;;;;2.93;1.33;;;;;;;;;;5129480;27;20071;-61
2023/04/30 09:17:27;;;;;;;7.17;1.73;;;;;;;;;;5134581;27;20500;-61
2023/04/30 09:19:54;;;;;;;6.13;1.73;;;;;;;;;;5134391;27;20027;-60
2023/04/30 09:22:21;;;;;;;4.87;1.47;;;;;;;;;;5133971;27;20105;-62
2023/04/30 09:24:49;;;;;;;2.47;1.53;;;;;;;;;;5134633;27;20023;-61
2023/04/30 09:27:22;;;;;;;19.03;1.80;;;;;;;;;;5133794;27;20023;-61
2023/04/30 09:29:49;;;;;;;1.60;1.00;;;;;;;;;;5129163;27;20381;-61
2023/04/30 09:32:15;;;;;;;3.63;1.67;;;;;;;;;;5129176;27;20023;-61
2023/04/30 09:34:42;;;;;;;3.50;1.20;;;;;;;;;;5129028;27;20382;-61
2023/04/30 09:37:10;;;;;;;3.43;1.53;;;;;;;;;;5128687;27;20027;-61
2023/04/30 09:39:48;;;;;;;1.20;0.90;;;;;;;;;;5115574;27;20408;-61
2023/04/30 09:42:15;;;;;;;4.73;2.30;;;;;;;;;;5133938;27;20039;-61
2023/04/30 09:44:43;;;;;;;1.67;1.27;;;;;;;;;;5134162;27;20115;-61
2023/04/30 09:47:18;;;;;;;3.13;1.47;;;;;;;;;;5133859;27;20031;-61
2023/04/30 09:49:50;;;;;;;2.13;1.13;;;;;;;;;;5132652;27;20023;-61
2023/04/30 09:52:17;;;;;;;1.77;0.80;;;;;;;;;;5128763;27;20039;-61
2023/04/30 09:54:45;;;;;;;10.03;1.93;;;;;;;;;;5128652;27;20035;-61
2023/04/30 09:57:13;;;;;;;2.07;1.27;;;;;;;;;;5128772;27;20030;-61
2023/04/30 09:59:43;;;;;;;0.97;0.73;;;;;;;;;;5129034;27;20164;-61
2023/04/30 10:02:10;;;;;;;4.67;1.30;;;;;;;;;;5133716;27;20031;-61
2023/04/30 10:04:38;;;;;;;7.80;1.70;;;;;;;;;;5133464;27;20094;-61
2023/04/30 10:07:06;;;;;;;1.47;1.13;;;;;;;;;;5133725;27;20038;-61
2023/04/30 10:09:40;;;;;;;2.87;1.43;;;;;;;;;;5115416;27;20358;-61
2023/04/30 10:12:08;;;;;;;7.35;1.25;;;;;;;;;;5132408;27;20438;-62
2023/04/30 10:14:39;;;;;;;1.47;1.07;;;;;;;;;;5128544;27;20100;-61
2023/04/30 10:17:11;;;;;;;1.33;1.20;;;;;;;;;;5128419;27;20015;-61
2023/04/30 10:19:42;;;;;;;2.67;1.30;;;;;;;;;;5128306;27;20020;-60
2023/04/30 10:22:09;;;;;;;3.80;1.90;;;;;;;;;;5128915;27;20039;-61
2023/04/30 10:24:36;;;;;;;3.43;2.13;;;;;;;;;;5133320;27;20459;-61
2023/04/30 10:27:03;;;;;;;8.20;2.10;;;;;;;;;;5133311;27;20501;-61
2023/04/30 10:29:30;;;;;;;3.07;1.63;;;;;;;;;;5133122;28;20499;-61
2023/04/30 10:31:57;;;;;;;2.50;1.50;;;;;;;;;;5115205;28;20485;-60
2023/04/30 10:34:44;;;;;;;3.47;2.03;;;;;;;;;;5113804;28;20027;-61
2023/04/30 10:37:19;;;;;;;2.83;1.70;;;;;;;;;;5128293;28;20027;-60
2023/04/30 10:39:46;;;;;;;1.45;0.90;;;;;;;;;;5109866;28;20142;-61
2023/04/30 10:42:13;;;;;;;2.47;1.43;;;;;;;;;;5128275;28;20019;-61
2023/04/30 10:44:40;;;;;;;4.30;1.87;;;;;;;;;;5128930;28;20076;-61
2023/04/30 10:47:07;;;;;;;3.13;2.07;;;;;;;;;;5133178;28;20042;-61
2023/04/30 10:49:34;;;;;;;3.63;1.93;;;;;;;;;;5133620;28;20089;-60
2023/04/30 10:52:02;;;;;;;4.03;2.57;;;;;;;;;;5133208;28;20027;-61
2023/04/30 10:54:34;;;;;;;18.33;2.60;;;;;;;;;;5133189;28;20020;-62
2023/04/30 10:57:12;;;;;;;3.47;2.07;;;;;;;;;;5131734;28;20373;-61
2023/04/30 10:59:44;;;;;;;2.73;1.80;;;;;;;;;;5128066;28;20031;-61
2023/04/30 11:02:10;;;;;;;5.80;2.60;;;;;;;;;;5128030;28;20420;-61
2023/04/30 11:04:56;;;;;;;4.73;2.63;;;;;;;;;;5127947;28;20028;-60
2023/04/30 11:07:27;;;;;;;16.20;3.57;;;;;;;;;;5129895;28;20535;-61
2023/04/30 11:09:56;;;;;;;4.13;2.63;;;;;;;;;;5133381;28;20019;-60
2023/04/30 11:12:29;;;;;;;6.90;3.77;;;;;;;;;;5114653;28;20042;-61
2023/04/30 11:15:08;;;;;;;2.87;2.27;;;;;;;;;;5133168;28;20027;-61
2023/04/30 11:17:34;;;;;;;7.33;3.87;;;;;;;;;;5132947;28;20424;-61
2023/04/30 11:20:02;;;;;;;22.70;5.87;;;;;;;;;;5129609;28;20028;-61
2023/04/30 11:22:34;;;;;;;13.07;5.50;;;;;;;;;;5127772;28;20027;-61
2023/04/30 11:25:09;;;;;;;16.00;4.40;;;;;;;;;;5127925;28;20401;-61
2023/04/30 11:27:37;;;;;;;9.88;5.95;;;;;;;;;;5127903;28;20035;-61
2023/04/30 11:30:09;;;;;;;10.93;5.20;;;;;;;;;;5130444;28;20077;-61
2023/04/30 11:32:37;;;;;;;14.23;8.50;;;;;;;;;;5132378;28;20533;-61
2023/04/30 11:35:05;;;;;;;20.83;11.83;;;;;;;;;;5135397;27;20102;-61
2023/04/30 11:37:32;;;;;;;47.83;17.83;;;;;;;;;;5136333;27;20466;-60
2023/04/30 11:40:02;;;;;;;36.67;19.53;;;;;;;;;;5136535;27;20023;-61
2023/04/30 11:42:30;;;;;;;34.40;18.97;;;;;;;;;;5133008;27;20038;-61
2023/04/30 11:45:07;;;;;;;45.97;18.93;;;;;;;;;;5131261;27;20047;-61
2023/04/30 11:47:45;;;;;;;31.20;18.43;;;;;;;;;;5130713;27;20039;-60
2023/04/30 11:50:13;;;;;;;43.53;19.93;;;;;;;;;;5131136;27;20023;-61
2023/04/30 11:52:40;;;;;;;66.80;21.43;;;;;;;;;;5134378;27;20102;-61
2023/04/30 11:55:08;;;;;;;36.70;20.57;;;;;;;;;;5136077;27;20019;-60
2023/04/30 11:57:39;;;;;;;33.57;20.33;;;;;;;;;;5136186;27;20038;-60
2023/04/30 12:00:17;;;;;;;30.23;20.33;;;;;;;;;;5135779;27;20027;-61
2023/04/30 12:02:47;;;;;;;39.30;21.77;;;;;;;;;;5136113;27;20075;-61
2023/04/30 12:05:18;;;;;;;38.50;20.03;;;;;;;;;;5113293;27;20038;-60
2023/04/30 12:07:46;;;;;;;37.10;16.77;;;;;;;;;;5130722;27;20504;-61
2023/04/30 12:10:13;;;;;;;34.53;19.00;;;;;;;;;;5130710;27;20110;-61
2023/04/30 12:12:40;;;;;;;45.00;21.83;;;;;;;;;;5130277;27;20071;-61
2023/04/30 12:15:13;;;;;;;40.80;20.77;;;;;;;;;;5134414;27;20028;-61
2023/04/30 12:17:39;;;;;;;37.10;20.17;;;;;;;;;;5135737;27;20071;-61
2023/04/30 12:20:08;;;;;;;31.70;17.70;;;;;;;;;;5135870;27;20019;-61
2023/04/30 12:22:38;;;;;;;55.87;20.23;;;;;;;;;;5135651;27;20023;-61
2023/04/30 12:25:18;;;;;;;36.87;21.07;;;;;;;;;;5135409;27;20536;-61
2023/04/30 12:27:48;;;;;;;24.87;15.50;;;;;;;;;;5130691;27;20039;-62
2023/04/30 12:30:15;;;;;;;46.77;20.60;;;;;;;;;;5130202;27;20019;-61
2023/04/30 12:32:43;;;;;;;48.07;23.53;;;;;;;;;;5130418;27;20056;-61
2023/04/30 12:35:14;;;;;;;35.13;20.00;;;;;;;;;;5130171;27;20034;-61
2023/04/30 12:37:44;;;;;;;44.47;19.83;;;;;;;;;;5134410;27;20061;-60
2023/04/30 12:40:12;;;;;;;39.83;21.30;;;;;;;;;;5134977;27;20363;-60
2023/04/30 12:42:39;;;;;;;37.27;21.03;;;;;;;;;;5135221;27;20667;-62
2023/04/30 12:45:07;;;;;;;42.73;19.73;;;;;;;;;;5135252;27;20051;-60
2023/04/30 12:47:39;;;;;;;41.23;22.37;;;;;;;;;;5135108;27;20031;-62
2023/04/30 12:50:08;;;;;;;56.87;21.27;;;;;;;;;;5111720;27;20034;-61
2023/04/30 12:52:34;;;;;;;49.50;23.17;;;;;;;;;;5129885;27;20380;-61
2023/04/30 12:55:22;;;;;;;31.43;16.63;;;;;;;;;;5129383;27;20374;-61
2023/04/30 12:58:08;;;;;;;35.80;18.47;;;;;;;;;;5129800;27;20031;-62
2023/04/30 13:00:50;;;;;;;43.07;17.57;;;;;;;;;;5134707;27;20020;-61
2023/04/30 13:03:21;;;;;;;34.47;18.17;;;;;;;;;;5134623;27;20023;-61
2023/04/30 13:05:51;;;;;;;42.73;17.77;;;;;;;;;;5134693;27;20031;-61
2023/04/30 13:08:18;;;;;;;66.83;19.07;;;;;;;;;;5134589;27;20038;-61
2023/04/30 13:10:45;;;;;;;51.57;19.10;;;;;;;;;;5133247;27;20076;-61
2023/04/30 13:13:13;;;;;;;47.37;19.27;;;;;;;;;;5128975;27;20019;-61
2023/04/30 13:15:40;;;;;;;29.20;17.67;;;;;;;;;;5129502;27;20031;-62
2023/04/30 13:18:08;;;;;;;26.13;15.40;;;;;;;;;;5129278;27;20027;-61
2023/04/30 13:20:38;;;;;;;30.57;16.33;;;;;;;;;;5129692;27;20051;-61
2023/04/30 13:23:06;;;;;;;30.33;16.73;;;;;;;;;;5134498;27;20062;-61
2023/04/30 13:25:33;;;;;;;19.73;13.57;;;;;;;;;;5134291;27;20024;-61
2023/04/30 13:28:00;;;;;;;37.03;20.73;;;;;;;;;;5134117;27;20038;-61
2023/04/30 13:30:27;;;;;;;56.63;26.53;;;;;;;;;;5134245;27;20461;-61
2023/04/30 13:32:58;;;;;;;60.23;31.43;;;;;;;;;;5133171;27;20023;-62
2023/04/30 13:35:24;;;;;;;71.90;36.87;;;;;;;;;;5129024;27;20101;-61
2023/04/30 13:37:52;;;;;;;67.63;36.90;;;;;;;;;;5128648;27;20088;-60
2023/04/30 13:40:19;;;;;;;59.93;34.17;;;;;;;;;;5129107;27;20084;-61
2023/04/30 13:42:47;;;;;;;60.57;36.57;;;;;;;;;;5129219;27;20020;-61
2023/04/30 13:45:15;;;;;;;48.93;26.03;;;;;;;;;;5133445;27;20072;-61
2023/04/30 13:47:41;;;;;;;91.67;37.50;;;;;;;;;;5133812;27;20027;-61
2023/04/30 13:50:08;;;;;;;75.37;32.67;;;;;;;;;;5133925;27;20011;-61
2023/04/30 13:52:35;;;;;;;71.53;34.83;;;;;;;;;;5133861;27;20019;-61
2023/04/30 13:55:03;;;;;;;74.53;23.97;;;;;;;;;;5132738;27;20034;-61
2023/04/30 13:57:32;;;;;;;87.70;29.13;;;;;;;;;;5128184;27;20550;-61
2023/04/30 13:59:59;;;;;;;55.50;31.57;;;;;;;;;;5128448;27;20031;-61
2023/04/30 14:02:30;;;;;;;67.13;31.47;;;;;;;;;;5128125;27;20500;-61
2023/04/30 14:04:58;;;;;;;57.60;36.67;;;;;;;;;;5128694;27;20078;-61
2023/04/30 14:07:25;;;;;;;59.30;30.43;;;;;;;;;;5133500;27;20031;-61
2023/04/30 14:09:52;;;;;;;54.93;30.03;;;;;;;;;;5133528;27;20023;-61
2023/04/30 14:12:20;;;;;;;63.90;36.57;;;;;;;;;;5133431;27;20549;-61
2023/04/30 14:14:47;;;;;;;67.63;36.93;;;;;;;;;;5133507;27;20023;-61
2023/04/30 14:17:13;;;;;;;58.30;29.07;;;;;;;;;;5132589;27;20019;-61
2023/04/30 14:19:40;;;;;;;48.30;26.27;;;;;;;;;;5128425;27;20050;-61
2023/04/30 14:22:07;;;;;;;50.17;27.23;;;;;;;;;;5128293;27;20098;-61
2023/04/30 14:24:35;;;;;;;53.40;27.10;;;;;;;;;;5128188;27;20028;-61
2023/04/30 14:27:02;;;;;;;50.30;27.43;;;;;;;;;;5127992;27;20039;-61
2023/04/30 14:29:29;;;;;;;55.93;30.47;;;;;;;;;;5132920;28;20038;-61
2023/04/30 14:31:56;;;;;;;43.30;27.23;;;;;;;;;;5133323;28;20026;-61
2023/04/30 14:34:23;;;;;;;58.77;28.30;;;;;;;;;;5133215;28;20046;-61
2023/04/30 14:36:50;;;;;;;41.27;25.90;;;;;;;;;;5133492;28;20655;-61
2023/04/30 14:39:17;;;;;;;51.40;22.67;;;;;;;;;;5133215;28;20035;-61
2023/04/30 14:41:44;;;;;;;61.67;29.83;;;;;;;;;;5128113;28;20358;-61
2023/04/30 14:44:10;;;;;;;54.87;29.10;;;;;;;;;;5128065;28;20104;-61